createdAt,value
2018-11-29T00:00:31.844Z,67.45
2018-11-29T00:03:00.443Z,68.00
2018-11-29T00:05:29.100Z,67.82
2018-11-29T00:07:57.775Z,68.13
2018-11-29T00:10:27.099Z,67.72
2018-11-29T00:12:55.789Z,67.57
2018-11-29T00:15:24.493Z,67.79
2018-11-29T00:17:53.117Z,67.81
2018-11-29T00:20:22.061Z,67.87
2018-11-29T00:22:51.566Z,68.12
2018-11-29T00:25:20.707Z,68.16
2018-11-29T00:27:49.637Z,68.10
2018-11-29T00:30:20.161Z,67.91
2018-11-29T00:32:49.758Z,68.12
2018-11-29T00:35:18.811Z,68.39
2018-11-29T00:37:47.577Z,68.02
2018-11-29T00:40:19.027Z,68.05
2018-11-29T00:42:48.154Z,67.26
2018-11-29T00:45:20.512Z,68.46
2018-11-29T00:47:49.615Z,68.50
2018-11-29T00:50:18.939Z,68.18
2018-11-29T00:52:48.419Z,68.42
2018-11-29T00:55:18.391Z,68.81
2018-11-29T00:57:47.019Z,68.45
2018-11-29T01:00:19.651Z,68.25
2018-11-29T01:02:48.294Z,68.68
2018-11-29T01:05:17.064Z,68.63
2018-11-29T01:07:45.827Z,68.71
2018-11-29T01:10:15.427Z,68.02
2018-11-29T01:12:44.660Z,68.34
2018-11-29T01:15:15.857Z,68.24
2018-11-29T01:17:45.330Z,68.84
2018-11-29T01:20:17.247Z,68.46
2018-11-29T01:22:45.821Z,69.07
2018-11-29T01:25:15.380Z,69.04
2018-11-29T01:27:47.294Z,69.21
2018-11-29T01:30:17.946Z,68.86
2018-11-29T01:32:47.630Z,69.16
2018-11-29T01:35:18.115Z,68.92
2018-11-29T01:37:46.758Z,69.15
2018-11-29T01:40:16.927Z,68.82
2018-11-29T01:42:54.718Z,68.38
2018-11-29T01:45:23.377Z,68.83
2018-11-29T01:47:52.883Z,68.73
2018-11-29T01:50:21.507Z,68.53
2018-11-29T01:52:50.242Z,68.57
2018-11-29T01:55:18.845Z,68.80
2018-11-29T01:57:48.463Z,68.84
2018-11-29T02:00:17.730Z,69.16
2018-11-29T02:02:47.712Z,68.74
2018-11-29T02:05:16.342Z,68.38
2018-11-29T02:07:45.003Z,68.79
2018-11-29T02:10:20.772Z,68.69
2018-11-29T02:12:50.099Z,69.26
2018-11-29T02:15:18.750Z,68.38
2018-11-29T02:17:47.506Z,68.70
2018-11-29T02:20:17.410Z,69.40
2018-11-29T02:22:46.361Z,69.22
2018-11-29T02:25:14.947Z,69.16
2018-11-29T02:27:43.564Z,68.75
2018-11-29T02:30:13.959Z,69.06
2018-11-29T02:32:42.658Z,69.29
2018-11-29T02:35:11.203Z,70.00
2018-11-29T02:37:39.837Z,69.64
2018-11-29T02:40:12.708Z,69.65
2018-11-29T02:42:41.844Z,69.68
2018-11-29T02:45:14.041Z,69.49
2018-11-29T02:47:42.703Z,69.64
2018-11-29T02:50:12.238Z,69.96
2018-11-29T02:52:40.764Z,70.44
2018-11-29T02:55:10.927Z,70.28
2018-11-29T02:57:39.559Z,70.14
2018-11-29T03:00:14.146Z,70.33
2018-11-29T03:02:42.884Z,70.27
2018-11-29T03:05:11.736Z,70.84
2018-11-29T03:07:40.303Z,70.75
2018-11-29T03:10:10.295Z,70.29
2018-11-29T03:12:39.003Z,70.79
2018-11-29T03:15:10.598Z,70.67
2018-11-29T03:17:39.453Z,70.91
2018-11-29T03:20:09.546Z,70.94
2018-11-29T03:22:38.107Z,71.21
2018-11-29T03:25:12.901Z,70.72
2018-11-29T03:27:41.558Z,70.24
2018-11-29T03:30:11.710Z,70.30
2018-11-29T03:32:40.571Z,70.64
2018-11-29T03:35:10.320Z,71.19
2018-11-29T03:37:38.920Z,70.42
2018-11-29T03:40:10.009Z,70.12
2018-11-29T03:42:38.551Z,70.34
2018-11-29T03:45:09.080Z,70.96
2018-11-29T03:47:38.019Z,70.65
2018-11-29T03:50:11.943Z,70.73
2018-11-29T03:52:40.578Z,70.86
2018-11-29T03:55:10.042Z,70.60
2018-11-29T03:57:39.470Z,70.64
2018-11-29T04:00:13.797Z,70.84
2018-11-29T04:02:42.840Z,70.48
2018-11-29T04:05:11.533Z,70.32
2018-11-29T04:07:40.677Z,70.39
2018-11-29T04:10:11.714Z,70.35
2018-11-29T04:12:40.457Z,70.47
2018-11-29T04:15:10.419Z,70.42
2018-11-29T04:17:41.022Z,69.75
2018-11-29T04:20:13.220Z,69.41
2018-11-29T04:22:42.450Z,70.21
2018-11-29T04:25:12.941Z,70.71
2018-11-29T04:27:41.591Z,70.57
2018-11-29T04:30:13.303Z,70.62
2018-11-29T04:32:42.694Z,71.24
2018-11-29T04:35:11.926Z,70.65
2018-11-29T04:37:40.961Z,70.91
2018-11-29T04:40:13.190Z,70.98
2018-11-29T04:42:41.757Z,70.83
2018-11-29T04:45:11.733Z,70.54
2018-11-29T04:47:40.323Z,70.19
2018-11-29T04:50:09.080Z,70.31
2018-11-29T04:52:37.681Z,69.94
2018-11-29T04:55:07.331Z,70.38
2018-11-29T04:57:35.913Z,70.13
2018-11-29T05:00:05.693Z,70.00
2018-11-29T05:02:34.936Z,69.95
2018-11-29T05:05:03.601Z,69.67
2018-11-29T05:07:32.239Z,69.87
2018-11-29T05:10:00.852Z,68.72
2018-11-29T05:12:29.411Z,68.78
2018-11-29T05:14:58.019Z,69.26
2018-11-29T05:17:26.574Z,69.54
2018-11-29T05:19:55.296Z,69.58
2018-11-29T05:22:23.911Z,69.45
2018-11-29T05:24:53.083Z,68.95
2018-11-29T05:27:21.611Z,69.09
2018-11-29T05:29:50.874Z,68.82
2018-11-29T05:32:19.518Z,69.05
2018-11-29T05:34:48.662Z,68.77
2018-11-29T05:37:17.185Z,68.51
2018-11-29T05:39:45.931Z,68.76
2018-11-29T05:42:14.491Z,68.57
2018-11-29T05:44:43.130Z,68.26
2018-11-29T05:47:11.662Z,68.24
2018-11-29T05:49:40.210Z,68.63
2018-11-29T05:52:10.444Z,68.37
2018-11-29T05:54:39.818Z,67.88
2018-11-29T05:57:08.586Z,68.29
2018-11-29T05:59:38.239Z,68.13
2018-11-29T06:02:07.553Z,68.27
2018-11-29T06:04:37.198Z,67.98
2018-11-29T06:07:06.832Z,67.84
2018-11-29T06:09:36.032Z,67.78
2018-11-29T06:12:05.136Z,67.78
2018-11-29T06:14:34.867Z,67.69
2018-11-29T06:17:03.714Z,68.07
2018-11-29T06:19:32.324Z,67.82
2018-11-29T06:22:01.080Z,67.37
2018-11-29T06:24:30.330Z,67.54
2018-11-29T06:26:59.627Z,67.85
2018-11-29T06:29:28.783Z,67.93
2018-11-29T06:31:57.826Z,67.47
2018-11-29T06:34:26.531Z,67.83
2018-11-29T06:36:55.582Z,67.46
2018-11-29T06:39:24.320Z,67.62
2018-11-29T06:41:53.935Z,67.69
2018-11-29T06:44:23.031Z,66.99
2018-11-29T06:46:52.011Z,67.11
2018-11-29T06:49:21.003Z,66.76
2018-11-29T06:51:50.137Z,67.00
2018-11-29T06:54:19.467Z,66.53
2018-11-29T06:56:48.083Z,66.41
2018-11-29T06:59:16.678Z,66.15
2018-11-29T07:01:45.301Z,66.11
2018-11-29T07:04:14.298Z,66.37
2018-11-29T07:06:42.876Z,66.26
2018-11-29T07:09:11.383Z,66.06
2018-11-29T07:11:40.975Z,66.24
2018-11-29T07:14:10.368Z,66.44
2018-11-29T07:16:38.952Z,65.70
2018-11-29T07:19:07.522Z,65.38
2018-11-29T07:21:54.826Z,65.97
2018-11-29T07:24:24.347Z,65.89
2018-11-29T07:26:52.999Z,66.08
2018-11-29T07:29:21.808Z,66.08
2018-11-29T07:31:50.411Z,65.53
2018-11-29T07:34:19.703Z,65.37
2018-11-29T07:36:48.317Z,66.15
2018-11-29T07:39:17.566Z,65.77
2018-11-29T07:41:46.182Z,65.83
2018-11-29T07:44:14.920Z,66.22
2018-11-29T07:46:43.501Z,65.68
2018-11-29T07:49:12.722Z,65.10
2018-11-29T07:51:41.327Z,65.57
2018-11-29T07:54:10.633Z,65.23
2018-11-29T07:56:39.836Z,65.25
2018-11-29T07:59:08.483Z,64.92
2018-11-29T08:01:37.095Z,64.90
2018-11-29T08:04:06.018Z,64.92
2018-11-29T08:06:34.959Z,64.52
2018-11-29T08:09:03.728Z,64.74
2018-11-29T08:11:32.273Z,64.44
2018-11-29T08:14:00.878Z,63.82
2018-11-29T08:16:29.411Z,62.99
2018-11-29T08:18:58.111Z,62.02
2018-11-29T08:21:26.866Z,62.08
2018-11-29T08:23:55.418Z,63.05
2018-11-29T08:26:24.106Z,63.19
2018-11-29T08:28:52.697Z,62.95
2018-11-29T08:31:21.294Z,62.64
2018-11-29T08:33:49.997Z,62.85
2018-11-29T08:36:18.686Z,61.79
2018-11-29T08:38:47.239Z,62.69
2018-11-29T08:41:16.302Z,61.59
2018-11-29T08:43:45.681Z,61.25
2018-11-29T08:46:14.270Z,59.77
2018-11-29T08:48:42.822Z,57.47
2018-11-29T08:51:11.420Z,58.97
2018-11-29T08:53:39.973Z,57.17
2018-11-29T08:56:08.590Z,56.35
2018-11-29T08:58:37.214Z,52.37
2018-11-29T09:01:05.992Z,54.44
2018-11-29T09:03:35.248Z,56.55
2018-11-29T09:06:04.045Z,55.64
2018-11-29T09:08:32.774Z,53.97
2018-11-29T09:11:01.395Z,54.37
2018-11-29T09:13:30.012Z,55.49
2018-11-29T09:15:58.627Z,53.75
2018-11-29T09:18:27.295Z,55.45
2018-11-29T09:20:55.845Z,54.51
2018-11-29T09:23:24.371Z,54.34
2018-11-29T09:25:52.969Z,54.96
2018-11-29T09:28:21.636Z,53.53
2018-11-29T09:30:50.355Z,54.90
2018-11-29T09:33:18.854Z,55.38
2018-11-29T09:35:47.575Z,54.66
2018-11-29T09:38:16.168Z,55.29
2018-11-29T09:40:44.806Z,54.64
2018-11-29T09:43:13.375Z,53.95
2018-11-29T09:45:42.050Z,54.00
2018-11-29T09:48:10.675Z,51.02
2018-11-29T09:50:39.379Z,51.78
2018-11-29T09:53:08.008Z,52.45
2018-11-29T09:55:36.653Z,52.79
2018-11-29T09:58:05.458Z,53.17
2018-11-29T10:00:34.602Z,53.11
2018-11-29T10:03:09.548Z,52.47
2018-11-29T10:05:38.487Z,52.65
2018-11-29T10:08:11.848Z,51.93
2018-11-29T10:10:37.047Z,53.04
2018-11-29T10:13:05.695Z,52.25
2018-11-29T10:15:34.240Z,51.51
2018-11-29T10:18:02.870Z,50.17
2018-11-29T10:20:31.426Z,50.61
2018-11-29T10:23:00.055Z,49.46
2018-11-29T10:25:28.603Z,50.20
2018-11-29T10:27:59.242Z,50.54
2018-11-29T10:30:32.793Z,50.80
2018-11-29T10:33:01.503Z,50.30
2018-11-29T10:35:30.130Z,49.99
2018-11-29T10:37:58.743Z,49.07
2018-11-29T10:40:27.351Z,49.11
2018-11-29T10:42:55.899Z,49.03
2018-11-29T10:45:24.542Z,48.27
2018-11-29T10:47:54.298Z,47.90
2018-11-29T10:50:22.930Z,46.41
2018-11-29T10:52:51.502Z,47.32
2018-11-29T10:55:20.531Z,47.18
2018-11-29T10:57:49.912Z,46.99
2018-11-29T11:00:28.656Z,47.51
2018-11-29T11:03:08.632Z,46.60
2018-11-29T11:05:37.814Z,46.93
2018-11-29T11:08:08.752Z,46.84
2018-11-29T11:10:37.019Z,46.75
2018-11-29T11:13:06.323Z,46.16
2018-11-29T11:15:35.167Z,45.10
2018-11-29T11:18:03.944Z,46.18
2018-11-29T11:20:32.591Z,46.45
2018-11-29T11:23:01.167Z,45.38
2018-11-29T11:25:29.705Z,44.40
2018-11-29T11:27:58.263Z,44.45
2018-11-29T11:30:26.830Z,42.93
2018-11-29T11:32:55.427Z,42.88
2018-11-29T11:35:24.606Z,43.52
2018-11-29T11:37:53.170Z,42.85
2018-11-29T11:40:22.452Z,42.01
2018-11-29T11:42:51.241Z,41.18
2018-11-29T11:45:20.519Z,41.90
2018-11-29T11:47:49.097Z,41.37
2018-11-29T11:50:18.940Z,41.63
2018-11-29T11:52:47.595Z,41.33
2018-11-29T11:55:18.922Z,42.27
2018-11-29T11:57:45.727Z,41.11
2018-11-29T12:00:21.579Z,40.25
2018-11-29T12:02:52.642Z,40.29
2018-11-29T12:05:21.223Z,40.24
2018-11-29T12:07:49.930Z,41.72
2018-11-29T12:10:18.499Z,41.90
2018-11-29T12:12:47.119Z,41.64
2018-11-29T12:15:16.284Z,40.15
2018-11-29T12:17:45.954Z,40.14
2018-11-29T12:20:18.687Z,39.61
2018-11-29T12:22:47.331Z,40.29
2018-11-29T12:25:17.058Z,40.14
2018-11-29T12:27:45.699Z,40.22
2018-11-29T12:30:17.639Z,39.65
2018-11-29T12:32:46.355Z,40.04
2018-11-29T12:35:15.407Z,41.39
2018-11-29T12:37:44.023Z,41.56
2018-11-29T12:40:14.830Z,41.46
2018-11-29T12:42:43.367Z,41.68
2018-11-29T12:45:13.121Z,41.72
2018-11-29T12:47:42.051Z,40.30
2018-11-29T12:50:15.702Z,40.21
2018-11-29T12:52:44.350Z,40.48
2018-11-29T12:55:13.939Z,40.76
2018-11-29T12:57:42.578Z,41.94
2018-11-29T13:00:13.514Z,41.36
2018-11-29T13:03:00.514Z,41.45
2018-11-29T13:05:29.929Z,42.51
2018-11-29T13:07:58.464Z,43.22
2018-11-29T13:10:28.128Z,43.10
2018-11-29T13:12:56.769Z,43.00
2018-11-29T13:15:26.625Z,43.20
2018-11-29T13:17:55.954Z,44.01
2018-11-29T13:20:24.644Z,43.49
2018-11-29T13:22:53.272Z,43.23
2018-11-29T13:25:24.146Z,43.43
2018-11-29T13:27:52.707Z,43.79
2018-11-29T13:30:22.160Z,43.50
2018-11-29T13:32:53.803Z,43.63
2018-11-29T13:35:33.495Z,44.25
2018-11-29T13:38:13.994Z,43.77
2018-11-29T13:40:44.358Z,44.30
2018-11-29T13:43:12.991Z,44.35
2018-11-29T13:45:41.596Z,44.44
2018-11-29T13:48:11.096Z,44.62
2018-11-29T13:50:40.210Z,44.52
2018-11-29T13:53:08.851Z,44.57
2018-11-29T13:55:37.615Z,44.23
2018-11-29T13:58:06.631Z,44.28
2018-11-29T14:00:35.297Z,44.37
2018-11-29T14:03:07.547Z,44.69
2018-11-29T14:05:37.255Z,44.76
2018-11-29T14:08:06.983Z,44.22
2018-11-29T14:10:35.806Z,43.44
2018-11-29T14:13:04.753Z,43.47
2018-11-29T14:15:33.356Z,43.40
2018-11-29T14:18:02.019Z,43.70
2018-11-29T14:20:30.783Z,43.23
2018-11-29T14:22:59.247Z,43.44
2018-11-29T14:25:27.759Z,43.67
2018-11-29T14:27:57.473Z,43.50
2018-11-29T14:30:28.187Z,43.68
2018-11-29T14:32:58.056Z,44.20
2018-11-29T14:35:26.646Z,44.09
2018-11-29T14:37:55.232Z,44.05
2018-11-29T14:40:25.942Z,44.37
2018-11-29T14:42:55.099Z,44.21
2018-11-29T14:45:26.455Z,44.47
2018-11-29T14:47:55.484Z,43.88
2018-11-29T14:50:34.672Z,44.27
2018-11-29T14:53:03.374Z,44.43
2018-11-29T14:55:32.784Z,44.91
2018-11-29T14:58:01.520Z,44.58
2018-11-29T15:00:30.899Z,44.48
2018-11-29T15:03:00.506Z,44.64
2018-11-29T15:05:31.595Z,44.37
2018-11-29T15:08:00.129Z,44.74
2018-11-29T15:10:29.259Z,43.99
2018-11-29T15:12:57.775Z,44.01
2018-11-29T15:15:26.366Z,44.08
2018-11-29T15:17:55.372Z,44.30
2018-11-29T15:20:27.273Z,43.98
2018-11-29T15:22:56.747Z,44.19
2018-11-29T15:25:25.459Z,44.15
2018-11-29T15:27:54.176Z,44.24
2018-11-29T15:30:23.596Z,43.04
2018-11-29T15:32:52.218Z,42.64
2018-11-29T15:35:20.935Z,43.43
2018-11-29T15:37:49.490Z,43.26
2018-11-29T15:40:18.663Z,44.03
2018-11-29T15:42:47.551Z,42.55
2018-11-29T15:45:18.533Z,42.93
2018-11-29T15:47:47.188Z,43.09
2018-11-29T15:50:17.144Z,42.73
2018-11-29T15:52:46.709Z,42.91
2018-11-29T15:55:19.257Z,43.42
2018-11-29T15:57:51.007Z,42.90
2018-11-29T16:00:21.593Z,43.30
2018-11-29T16:02:50.984Z,43.11
2018-11-29T16:05:19.510Z,43.21
2018-11-29T16:07:48.833Z,42.86
2018-11-29T16:10:18.848Z,43.37
2018-11-29T16:12:47.484Z,42.83
2018-11-29T16:15:16.955Z,43.29
2018-11-29T16:17:46.264Z,42.83
2018-11-29T16:20:19.352Z,42.69
2018-11-29T16:22:49.410Z,42.77
2018-11-29T16:25:20.824Z,42.56
2018-11-29T16:27:52.858Z,42.24
2018-11-29T16:30:28.931Z,42.64
2018-11-29T16:33:02.180Z,42.45
2018-11-29T16:35:33.604Z,42.59
2018-11-29T16:38:04.718Z,43.03
2018-11-29T16:40:35.855Z,43.03
2018-11-29T16:43:07.994Z,43.18
2018-11-29T16:45:39.432Z,43.05
2018-11-29T16:48:08.677Z,43.54
2018-11-29T16:50:38.572Z,43.49
2018-11-29T16:53:08.979Z,43.67
2018-11-29T16:55:38.473Z,43.40
2018-11-29T16:58:09.308Z,43.31
2018-11-29T17:00:38.097Z,43.14
2018-11-29T17:03:07.128Z,43.37
2018-11-29T17:05:35.839Z,43.14
2018-11-29T17:08:04.501Z,43.12
2018-11-29T17:10:33.812Z,43.89
2018-11-29T17:13:06.704Z,43.31
2018-11-29T17:15:35.332Z,43.82
2018-11-29T17:18:04.367Z,44.48
2018-11-29T17:20:33.581Z,44.26
2018-11-29T17:23:02.771Z,44.32
2018-11-29T17:25:31.535Z,44.70
2018-11-29T17:28:00.252Z,44.69
2018-11-29T17:30:28.814Z,45.28
2018-11-29T17:32:58.480Z,45.31
2018-11-29T17:35:27.091Z,45.45
2018-11-29T17:37:57.139Z,45.54
2018-11-29T17:40:25.942Z,45.96
2018-11-29T17:42:55.354Z,46.46
2018-11-29T17:45:26.304Z,46.25
2018-11-29T17:47:57.311Z,46.57
2018-11-29T17:50:28.378Z,46.75
2018-11-29T17:52:57.620Z,46.73
2018-11-29T17:55:26.771Z,47.13
2018-11-29T17:57:55.447Z,47.44
2018-11-29T18:00:25.477Z,47.80
2018-11-29T18:02:54.131Z,47.30
2018-11-29T18:05:22.831Z,48.13
2018-11-29T18:07:51.425Z,47.74
2018-11-29T18:10:26.494Z,48.04
2018-11-29T18:12:57.986Z,48.33
2018-11-29T18:15:28.092Z,48.67
2018-11-29T18:17:56.610Z,48.95
2018-11-29T18:20:26.110Z,48.79
2018-11-29T18:22:54.863Z,49.27
2018-11-29T18:25:23.595Z,49.14
2018-11-29T18:27:52.722Z,49.52
2018-11-29T18:30:22.502Z,49.48
2018-11-29T18:32:51.133Z,49.72
2018-11-29T18:35:19.745Z,49.72
2018-11-29T18:37:48.410Z,50.09
2018-11-29T18:40:19.173Z,49.70
2018-11-29T18:42:49.152Z,49.23
2018-11-29T18:45:18.682Z,49.87
2018-11-29T18:47:48.610Z,50.05
2018-11-29T18:50:19.256Z,50.02
2018-11-29T18:52:48.550Z,50.28
2018-11-29T18:55:17.586Z,50.58
2018-11-29T18:57:46.241Z,51.02
2018-11-29T19:00:28.050Z,50.96
2018-11-29T19:02:57.381Z,51.15
2018-11-29T19:05:25.856Z,51.22
2018-11-29T19:07:54.501Z,51.37
2018-11-29T19:10:23.362Z,52.12
2018-11-29T19:12:57.551Z,51.66
2018-11-29T19:15:26.211Z,52.03
2018-11-29T19:17:54.768Z,52.05
2018-11-29T19:20:23.323Z,51.99
2018-11-29T19:22:51.975Z,51.95
2018-11-29T19:25:21.064Z,51.31
2018-11-29T19:27:50.542Z,50.73
2018-11-29T19:30:21.530Z,50.04
2018-11-29T19:32:54.686Z,49.84
2018-11-29T19:35:23.492Z,49.66
2018-11-29T19:37:52.015Z,49.54
2018-11-29T19:40:20.602Z,49.79
2018-11-29T19:42:49.238Z,49.87
2018-11-29T19:45:17.852Z,49.67
2018-11-29T19:47:46.732Z,50.10
2018-11-29T19:50:18.194Z,50.03
2018-11-29T19:52:50.186Z,50.01
2018-11-29T19:55:22.409Z,49.78
2018-11-29T19:57:54.317Z,49.78
2018-11-29T20:00:24.935Z,49.66
2018-11-29T20:02:56.333Z,49.45
2018-11-29T20:05:25.967Z,48.83
2018-11-29T20:07:57.202Z,48.76
2018-11-29T20:10:28.415Z,49.45
2018-11-29T20:13:04.211Z,49.97
2018-11-29T20:15:35.646Z,50.46
2018-11-29T20:18:07.088Z,50.38
2018-11-29T20:20:38.247Z,50.03
2018-11-29T20:23:08.753Z,50.45
2018-11-29T20:25:40.157Z,50.22
2018-11-29T20:28:10.040Z,50.31
2018-11-29T20:30:40.449Z,50.44
2018-11-29T20:33:10.672Z,50.00
2018-11-29T20:35:40.966Z,50.52
2018-11-29T20:38:12.760Z,50.63
2018-11-29T20:40:45.241Z,51.08
2018-11-29T20:43:16.390Z,51.32
2018-11-29T20:45:49.914Z,51.03
2018-11-29T20:48:21.653Z,51.19
2018-11-29T20:50:54.392Z,51.50
2018-11-29T20:53:27.153Z,51.50
2018-11-29T20:55:56.818Z,51.96
2018-11-29T20:58:26.344Z,52.00
2018-11-29T21:00:57.425Z,52.11
2018-11-29T21:03:30.397Z,52.04
2018-11-29T21:06:00.799Z,52.55
2018-11-29T21:08:29.935Z,52.22
2018-11-29T21:10:59.323Z,52.38
2018-11-29T21:13:28.444Z,52.43
2018-11-29T21:15:57.162Z,52.58
2018-11-29T21:18:25.836Z,52.50
2018-11-29T21:20:55.123Z,52.97
2018-11-29T21:23:23.729Z,52.73
2018-11-29T21:25:52.527Z,52.60
2018-11-29T21:28:21.226Z,52.56
2018-11-29T21:30:50.001Z,53.13
2018-11-29T21:33:18.752Z,52.97
2018-11-29T21:35:47.695Z,53.00
2018-11-29T21:38:18.483Z,53.25
2018-11-29T21:40:51.987Z,53.30
2018-11-29T21:43:20.625Z,53.47
2018-11-29T21:45:49.679Z,53.77
2018-11-29T21:48:18.472Z,53.29
2018-11-29T21:50:47.124Z,53.76
2018-11-29T21:53:15.691Z,53.46
2018-11-29T21:55:44.458Z,53.84
2018-11-29T21:58:13.002Z,53.45
2018-11-29T22:00:41.751Z,53.65
2018-11-29T22:03:10.382Z,53.50
2018-11-29T22:05:39.160Z,53.70
2018-11-29T22:08:07.874Z,54.09
2018-11-29T22:10:36.539Z,53.91
2018-11-29T22:13:05.812Z,54.09
2018-11-29T22:15:34.747Z,54.12
2018-11-29T22:18:14.848Z,54.18
2018-11-29T22:20:44.124Z,54.03
2018-11-29T22:23:12.785Z,54.32
2018-11-29T22:25:42.038Z,54.05
2018-11-29T22:28:10.642Z,54.22
2018-11-29T22:30:39.359Z,54.26
2018-11-29T22:33:08.714Z,54.74
2018-11-29T22:35:37.388Z,54.32
2018-11-29T22:38:06.852Z,54.69
2018-11-29T22:40:35.551Z,54.67
2018-11-29T22:43:05.965Z,54.90
2018-11-29T22:45:35.404Z,54.91
2018-11-29T22:48:05.225Z,55.32
2018-11-29T22:50:33.784Z,55.25
2018-11-29T22:53:02.428Z,55.28
2018-11-29T22:55:31.077Z,55.22
2018-11-29T22:57:59.602Z,55.21
2018-11-29T23:00:59.573Z,55.56
2018-11-29T23:03:28.156Z,55.80
2018-11-29T23:05:56.746Z,55.36
2018-11-29T23:08:25.722Z,55.90
2018-11-29T23:10:54.641Z,55.72
2018-11-29T23:13:23.217Z,55.79
2018-11-29T23:15:51.759Z,55.58
2018-11-29T23:18:20.335Z,56.19
2018-11-29T23:20:49.422Z,55.90
2018-11-29T23:23:18.083Z,56.33
2018-11-29T23:25:47.259Z,56.32
2018-11-29T23:28:15.758Z,56.10
2018-11-29T23:30:44.423Z,56.33
2018-11-29T23:33:12.974Z,56.85
2018-11-29T23:35:41.570Z,56.26
2018-11-29T23:38:10.243Z,56.37
2018-11-29T23:40:38.812Z,56.38
2018-11-29T23:43:07.377Z,56.00
2018-11-29T23:45:35.902Z,56.11
2018-11-29T23:48:04.495Z,56.67
2018-11-29T23:50:33.049Z,56.45
2018-11-29T23:53:01.606Z,56.28
2018-11-29T23:55:30.443Z,56.49
2018-11-29T23:57:58.987Z,56.25
